Time;durP1;ratioP1;P1;durP2;ratioP2;P2;SDS_P1;SDS_P2;PMS_P1;PMS_P2;Temp;Humidity;BMP_temperature;BMP_pressure;BME280_temperature;BME280_humidity;BME280_pressure;Samples;Min_cycle;Max_cycle;Signal;HPM_P1;HPM_P2
2022/11/26 00:00:52;;;;;;;41.17;24.85;;;;;;;3.73;100.00;102436.91;6121797;23;20395;-85
2022/11/26 00:03:18;;;;;;;53.03;25.05;;;;;;;3.72;100.00;102432.50;6094288;23;20005;-84
2022/11/26 00:05:46;;;;;;;43.03;25.65;;;;;;;3.70;100.00;102431.63;6094447;23;20013;-83
2022/11/26 00:08:20;;;;;;;40.00;23.70;;;;;;;3.70;100.00;102429.00;6118812;23;20006;-84
2022/11/26 00:10:49;;;;;;;42.63;24.83;;;;;;;3.70;100.00;102435.13;6118716;23;20001;-85
2022/11/26 00:13:22;;;;;;;43.53;25.02;;;;;;;3.67;100.00;102439.50;6119295;23;20010;-84
2022/11/26 00:15:48;;;;;;;42.20;26.17;;;;;;;3.66;100.00;102441.25;6120800;23;20014;-85
2022/11/26 00:18:14;;;;;;;45.85;25.38;;;;;;;3.66;100.00;102437.75;6121987;23;20002;-86
2022/11/26 00:20:40;;;;;;;43.75;25.92;;;;;;;3.65;100.00;102442.16;6121564;23;20056;-85
2022/11/26 00:23:14;;;;;;;48.03;25.40;;;;;;;3.57;100.00;102448.25;6121429;23;20001;-85
2022/11/26 00:25:43;;;;;;;46.45;25.20;;;;;;;3.54;100.00;102440.34;6118776;23;20018;-85
2022/11/26 00:28:26;;;;;;;42.75;24.30;;;;;;;3.53;100.00;102451.75;6120038;23;20089;-84
2022/11/26 00:30:52;;;;;;;42.13;23.63;;;;;;;3.50;100.00;102453.47;6121859;23;20041;-84
2022/11/26 00:33:18;;;;;;;42.40;24.38;;;;;;;3.57;100.00;102446.50;6121487;23;20002;-84
2022/11/26 00:35:45;;;;;;;46.22;24.75;;;;;;;3.57;100.00;102456.16;6120868;23;20056;-84
2022/11/26 00:38:16;;;;;;;50.83;26.65;;;;;;;3.57;100.00;102446.50;6121633;23;20368;-84
2022/11/26 00:40:41;;;;;;;49.30;26.50;;;;;;;3.57;100.00;102451.78;6121487;23;20332;-84
2022/11/26 00:43:11;;;;;;;47.20;26.08;;;;;;;3.56;100.00;102451.78;6121832;23;20020;-84
2022/11/26 00:45:36;;;;;;;42.33;26.40;;;;;;;3.59;100.00;102451.75;6120091;23;20073;-84
2022/11/26 00:48:02;;;;;;;43.65;26.80;;;;;;;3.63;100.00;102448.28;6121056;23;20025;-84
2022/11/26 00:50:35;;;;;;;45.33;25.63;;;;;;;3.57;100.00;102445.63;6121448;23;20051;-83
2022/11/26 00:53:01;;;;;;;41.05;24.90;;;;;;;3.52;100.00;102458.78;6121833;23;20005;-84
2022/11/26 00:55:38;;;;;;;50.35;25.88;;;;;;;3.52;100.00;102457.91;6120151;23;20548;-84
2022/11/26 00:58:05;;;;;;;50.75;25.67;;;;;;;3.50;100.00;102445.59;6123499;23;20001;-84
2022/11/26 01:00:33;;;;;;;48.50;25.73;;;;;;;3.47;100.00;102453.50;6120403;23;20033;-84
2022/11/26 01:03:00;;;;;;;48.42;26.92;;;;;;;3.57;100.00;102466.69;6120604;23;20002;-84
2022/11/26 01:05:30;;;;;;;46.70;26.48;;;;;;;3.57;100.00;102466.69;6119661;23;20016;-85
2022/11/26 01:08:05;;;;;;;47.70;26.55;;;;;;;3.54;100.00;102475.44;6122196;23;20443;-85
2022/11/26 01:10:31;;;;;;;47.65;26.23;;;;;;;3.51;100.00;102470.16;6127183;23;20014;-84
2022/11/26 01:12:57;;;;;;;48.47;26.67;;;;;;;3.53;100.00;102468.44;6122160;23;20009;-84
2022/11/26 01:15:24;;;;;;;51.35;27.48;;;;;;;3.47;100.00;102464.03;6118952;23;20002;-85
2022/11/26 01:17:51;;;;;;;49.70;27.30;;;;;;;3.44;100.00;102471.91;6093327;23;20009;-85
2022/11/26 01:20:26;;;;;;;48.95;25.60;;;;;;;3.44;100.00;102471.91;6119280;23;20060;-83
2022/11/26 01:22:53;;;;;;;48.40;25.85;;;;;;;3.45;100.00;102470.16;6119302;23;20086;-82
2022/11/26 01:25:21;;;;;;;51.38;25.60;;;;;;;3.43;100.00;102464.00;6119954;23;20020;-85
2022/11/26 01:27:46;;;;;;;44.80;25.33;;;;;;;3.41;100.00;102456.09;6123750;23;20010;-84
2022/11/26 01:30:17;;;;;;;48.47;26.20;;;;;;;3.36;100.00;102465.72;6124298;23;20060;-85
2022/11/26 01:32:42;;;;;;;49.80;25.27;;;;;;;3.29;100.00;102457.78;6125074;23;20006;-85
2022/11/26 01:35:08;;;;;;;48.67;26.17;;;;;;;3.38;100.00;102456.06;6124388;23;20150;-85
2022/11/26 01:37:33;;;;;;;40.35;24.80;;;;;;;3.30;100.00;102460.41;6124996;23;20002;-85
2022/11/26 01:39:58;;;;;;;50.70;27.52;;;;;;;3.30;100.00;102462.16;6126232;23;20010;-85
2022/11/26 01:42:39;;;;;;;45.40;26.40;;;;;;;3.26;100.00;102456.03;6095539;23;20002;-85
2022/11/26 01:45:17;;;;;;;43.28;25.13;;;;;;;3.18;100.00;102453.34;6095458;23;20109;-85
2022/11/26 01:47:43;;;;;;;49.10;26.52;;;;;;;3.12;100.00;102455.06;6120998;23;20331;-82
2022/11/26 01:50:26;;;;;;;50.20;26.40;;;;;;;3.12;100.00;102469.09;6122440;23;20005;-84
2022/11/26 01:52:54;;;;;;;49.90;27.30;;;;;;;3.15;100.00;102477.00;6096369;23;20120;-84
2022/11/26 01:55:19;;;;;;;55.38;27.20;;;;;;;3.09;100.00;102478.72;6122019;23;20149;-84
2022/11/26 01:57:45;;;;;;;44.58;27.77;;;;;;;3.06;100.00;102471.69;6122974;23;20021;-84
2022/11/26 02:00:11;;;;;;;50.70;28.05;;;;;;;2.99;100.00;102473.41;6122813;23;20387;-84
2022/11/26 02:02:37;;;;;;;54.35;27.70;;;;;;;3.05;100.00;102476.94;6120324;23;20185;-84
2022/11/26 02:05:17;;;;;;;43.20;26.98;;;;;;;3.04;100.00;102489.22;6120183;23;20009;-85
2022/11/26 02:07:43;;;;;;;52.97;28.42;;;;;;;3.06;100.00;102479.59;6120652;23;20002;-84
2022/11/26 02:10:09;;;;;;;54.30;29.27;;;;;;;3.02;100.00;102483.06;6120968;23;20585;-85
2022/11/26 02:12:35;;;;;;;55.65;28.80;;;;;;;3.02;100.00;102487.47;6119351;23;20009;-85
2022/11/26 02:15:01;;;;;;;53.45;29.70;;;;;;;3.00;100.00;102483.03;6120571;23;20157;-84
2022/11/26 02:17:38;;;;;;;58.03;28.40;;;;;;;2.94;100.00;102482.13;6121681;23;20428;-85
2022/11/26 02:20:31;;;;;;;64.35;31.27;;;;;;;2.98;100.00;102487.44;6121831;23;20002;-85
2022/11/26 02:23:35;;;;;;;60.27;30.90;;;;;;;2.99;100.00;102504.97;6121987;23;20320;-84
2022/11/26 02:26:20;;;;;;;67.15;32.28;;;;;;;3.00;100.00;102504.09;6036921;23;20026;-85
2022/11/26 02:29:10;;;;;;;67.68;32.75;;;;;;;3.00;100.00;102506.72;6061509;23;20022;-85
2022/11/26 02:31:50;;;;;;;71.50;33.90;;;;;;;3.00;100.00;102490.94;6060460;23;20386;-85
2022/11/26 02:34:39;;;;;;;67.90;33.65;;;;;;;2.99;100.00;102504.09;6059095;23;20015;-85
2022/11/26 02:37:10;;;;;;;68.60;34.53;;;;;;;3.08;100.00;102506.78;6062000;23;20006;-85
2022/11/26 02:39:35;;;;;;;71.50;35.58;;;;;;;3.12;100.00;102503.28;6060263;23;20034;-84
2022/11/26 02:42:03;;;;;;;75.25;34.42;;;;;;;3.08;100.00;102501.50;6058899;23;20018;-84
2022/11/26 02:44:40;;;;;;;75.63;34.38;;;;;;;3.07;100.00;102499.75;6059102;23;20134;-84
2022/11/26 02:47:10;;;;;;;70.45;35.80;;;;;;;3.05;100.00;102496.22;6059144;23;20123;-84
2022/11/26 02:49:38;;;;;;;66.43;34.38;;;;;;;2.99;100.00;102499.69;6057685;23;20357;-85
2022/11/26 02:52:08;;;;;;;65.40;33.20;;;;;;;2.95;100.00;102503.19;6058186;23;20036;-85
2022/11/26 02:54:35;;;;;;;66.78;33.35;;;;;;;2.93;100.00;102506.69;6058196;23;20011;-85
2022/11/26 02:57:04;;;;;;;75.00;33.97;;;;;;;2.86;100.00;102518.91;6059637;23;20006;-85
2022/11/26 02:59:30;;;;;;;70.93;32.58;;;;;;;2.84;100.00;102518.00;6062445;23;20021;-85
2022/11/26 03:01:59;;;;;;;69.43;32.40;;;;;;;2.86;100.00;102526.78;6064872;23;20050;-84
2022/11/26 03:04:29;;;;;;;66.20;33.28;;;;;;;2.85;100.00;102517.16;6122568;23;20081;-85
2022/11/26 03:06:57;;;;;;;70.22;32.83;;;;;;;2.80;100.00;102510.06;6121803;23;20006;-85
2022/11/26 03:09:23;;;;;;;64.18;32.65;;;;;;;2.77;100.00;102515.31;6120148;23;20006;-84
2022/11/26 03:11:48;;;;;;;68.13;33.22;;;;;;;2.77;100.00;102526.72;6121583;23;20359;-84
2022/11/26 03:14:14;;;;;;;68.82;32.85;;;;;;;2.77;100.00;102525.84;6121074;23;20022;-84
2022/11/26 03:16:39;;;;;;;66.13;33.38;;;;;;;2.75;100.00;102525.81;6120810;23;20006;-85
2022/11/26 03:19:04;;;;;;;68.38;34.95;;;;;;;2.75;100.00;102533.69;6120643;23;20033;-84
2022/11/26 03:21:31;;;;;;;63.38;32.35;;;;;;;2.68;100.00;102529.28;6120170;23;20006;-83
2022/11/26 03:23:56;;;;;;;68.13;32.33;;;;;;;2.65;100.00;102531.88;6119891;23;20510;-84
2022/11/26 03:26:22;;;;;;;66.13;32.25;;;;;;;2.68;100.00;102535.41;6120819;23;20001;-85
2022/11/26 03:28:47;;;;;;;64.95;33.10;;;;;;;2.63;100.00;102544.09;6094451;23;20010;-85
2022/11/26 03:31:12;;;;;;;62.10;32.13;;;;;;;2.54;100.00;102528.25;6119906;23;20005;-84
2022/11/26 03:33:38;;;;;;;62.08;30.92;;;;;;;2.56;100.00;102539.69;6118442;23;20014;-86
2022/11/26 03:36:03;;;;;;;64.88;32.15;;;;;;;2.52;100.00;102544.03;6121586;23;20010;-84
2022/11/26 03:38:28;;;;;;;68.10;33.53;;;;;;;2.50;100.00;102535.22;6120553;23;20012;-85
2022/11/26 03:40:59;;;;;;;64.72;34.10;;;;;;;2.53;100.00;102543.16;6121091;23;20387;-85
2022/11/26 03:43:24;;;;;;;66.53;34.67;;;;;;;2.53;100.00;102552.78;6094489;23;20002;-84
2022/11/26 03:45:50;;;;;;;68.65;35.65;;;;;;;2.48;100.00;102545.75;6122113;23;20083;-84
2022/11/26 03:48:15;;;;;;;75.53;36.50;;;;;;;2.52;100.00;102545.78;6121825;23;20009;-84
2022/11/26 03:50:40;;;;;;;71.00;36.03;;;;;;;2.43;100.00;102536.94;6122332;23;20002;-84
2022/11/26 03:53:06;;;;;;;72.55;36.92;;;;;;;2.41;100.00;102546.53;6121636;23;20006;-85
2022/11/26 03:55:31;;;;;;;75.90;37.70;;;;;;;2.42;100.00;102550.91;6119906;23;20013;-84
2022/11/26 03:57:56;;;;;;;78.63;38.90;;;;;;;2.35;100.00;102546.50;6122440;23;20321;-85
2022/11/26 04:00:22;;;;;;;73.65;41.55;;;;;;;2.33;100.00;102556.09;6122104;23;20002;-84
2022/11/26 04:02:47;;;;;;;77.38;42.13;;;;;;;2.32;100.00;102549.06;6094799;23;20325;-85
2022/11/26 04:05:12;;;;;;;84.57;44.95;;;;;;;2.33;100.00;102550.81;6121862;23;20012;-85
2022/11/26 04:07:37;;;;;;;89.60;47.67;;;;;;;2.30;100.00;102552.53;6131720;23;20140;-84
2022/11/26 04:10:03;;;;;;;92.80;50.05;;;;;;;2.31;100.00;102552.56;6124232;23;20661;-85
2022/11/26 04:12:29;;;;;;;100.70;50.50;;;;;;;2.28;100.00;102560.41;6122461;23;20013;-85
2022/11/26 04:14:54;;;;;;;98.80;49.70;;;;;;;2.32;100.00;102556.06;6120679;23;20005;-85
2022/11/26 04:17:19;;;;;;;92.25;47.10;;;;;;;2.28;100.00;102567.41;6120369;23;20428;-83
2022/11/26 04:19:44;;;;;;;82.05;47.22;;;;;;;2.25;100.00;102565.63;6120059;23;20136;-85
2022/11/26 04:22:10;;;;;;;87.47;46.33;;;;;;;2.21;100.00;102562.09;6121252;23;20417;-85
2022/11/26 04:24:35;;;;;;;93.47;50.17;;;;;;;2.22;100.00;102573.50;6117941;23;20010;-84
2022/11/26 04:27:00;;;;;;;94.15;49.63;;;;;;;2.25;100.00;102584.03;6120293;23;20006;-84
2022/11/26 04:29:25;;;;;;;94.35;50.75;;;;;;;2.28;100.00;102593.69;6120577;23;20006;-84
2022/11/26 04:31:51;;;;;;;90.18;50.05;;;;;;;2.28;100.00;102584.06;6093919;23;20092;-85
2022/11/26 04:34:16;;;;;;;86.47;51.03;;;;;;;2.26;100.00;102575.28;6092647;23;20321;-85
2022/11/26 04:36:41;;;;;;;88.60;48.60;;;;;;;2.27;100.00;102584.06;6118912;23;20442;-85
2022/11/26 04:39:07;;;;;;;83.68;46.83;;;;;;;2.21;100.00;102590.09;6118435;23;20005;-83
2022/11/26 04:41:32;;;;;;;86.30;48.78;;;;;;;2.20;100.00;102580.47;6119264;23;20013;-85
2022/11/26 04:43:57;;;;;;;86.10;47.72;;;;;;;2.16;100.00;102584.81;6120147;23;20051;-85
2022/11/26 04:46:23;;;;;;;77.72;45.75;;;;;;;2.11;100.00;102578.63;6093400;23;20006;-85
2022/11/26 04:48:49;;;;;;;80.18;44.67;;;;;;;2.11;100.00;102590.88;6093634;23;20002;-85
2022/11/26 04:51:14;;;;;;;79.68;45.15;;;;;;;2.11;100.00;102576.00;6119667;23;20008;-85
2022/11/26 04:53:40;;;;;;;81.43;44.90;;;;;;;2.06;100.00;102587.31;6118730;23;20025;-83
2022/11/26 04:56:05;;;;;;;81.38;46.33;;;;;;;2.10;100.00;102595.25;6119401;23;20404;-84
2022/11/26 04:58:30;;;;;;;77.40;46.38;;;;;;;2.08;100.00;102591.72;6121980;23;20010;-83
2022/11/26 05:00:56;;;;;;;87.10;47.58;;;;;;;2.11;100.00;102601.38;6120976;23;20006;-84
2022/11/26 05:03:21;;;;;;;85.47;47.13;;;;;;;2.14;100.00;102601.44;6124209;23;20017;-84
2022/11/26 05:05:47;;;;;;;79.80;45.22;;;;;;;2.12;100.00;102603.13;6121570;23;20033;-83
2022/11/26 05:08:13;;;;;;;84.85;48.40;;;;;;;2.13;100.00;102604.88;6122907;23;20010;-84
2022/11/26 05:10:38;;;;;;;89.10;49.30;;;;;;;2.10;100.00;102603.13;6122120;23;20014;-83
2022/11/26 05:13:04;;;;;;;84.88;46.58;;;;;;;2.07;100.00;102599.56;6123932;23;20010;-84
2022/11/26 05:15:29;;;;;;;81.75;45.63;;;;;;;2.04;100.00;102600.41;6097531;23;20021;-83
2022/11/26 05:17:54;;;;;;;85.88;47.38;;;;;;;2.02;100.00;102603.91;6123556;23;20002;-84
2022/11/26 05:20:19;;;;;;;88.38;50.42;;;;;;;2.04;100.00;102604.78;6123437;23;20336;-84
2022/11/26 05:22:45;;;;;;;78.57;47.70;;;;;;;2.06;100.00;102600.44;6126122;23;20005;-85
2022/11/26 05:25:10;;;;;;;86.63;48.65;;;;;;;2.08;100.00;102602.22;6123497;23;20018;-84
2022/11/26 05:27:35;;;;;;;80.35;48.47;;;;;;;2.06;100.00;102603.94;6100347;23;20041;-84
2022/11/26 05:30:02;;;;;;;83.97;49.30;;;;;;;2.02;100.00;102594.28;6123763;23;20016;-84
2022/11/26 05:32:27;;;;;;;84.35;47.75;;;;;;;2.06;100.00;102603.06;6122901;23;20013;-85
2022/11/26 05:34:53;;;;;;;81.07;47.35;;;;;;;2.04;100.00;102612.66;6121030;23;20013;-84
2022/11/26 05:37:18;;;;;;;81.00;45.75;;;;;;;2.00;100.00;102609.09;6122356;23;20033;-84
2022/11/26 05:39:43;;;;;;;81.72;46.47;;;;;;;2.02;100.00;102606.53;6122783;23;20002;-83
2022/11/26 05:42:09;;;;;;;86.47;46.70;;;;;;;2.03;100.00;102605.66;6124023;23;20037;-85
2022/11/26 05:44:34;;;;;;;77.95;45.50;;;;;;;1.98;100.00;102610.84;6121568;23;20018;-85
2022/11/26 05:46:59;;;;;;;83.90;46.35;;;;;;;1.99;100.00;102608.22;6124128;23;20002;-85
2022/11/26 05:49:24;;;;;;;89.00;44.72;;;;;;;2.00;100.00;102619.63;6122369;23;20009;-84
2022/11/26 05:51:50;;;;;;;79.57;43.25;;;;;;;1.99;100.00;102623.13;6097482;23;20021;-85
2022/11/26 05:54:15;;;;;;;84.53;45.85;;;;;;;1.98;100.00;102624.84;6120425;23;20418;-84
2022/11/26 05:56:42;;;;;;;78.43;45.05;;;;;;;1.96;100.00;102629.19;6120613;23;20033;-84
2022/11/26 05:59:07;;;;;;;81.88;45.22;;;;;;;1.89;100.00;102611.63;6121880;23;20006;-84
2022/11/26 06:01:33;;;;;;;92.47;47.08;;;;;;;1.94;100.00;102628.31;6123634;23;20124;-84
2022/11/26 06:03:58;;;;;;;90.05;47.70;;;;;;;1.94;100.00;102630.06;6122632;23;20037;-84
2022/11/26 06:06:23;;;;;;;85.45;47.58;;;;;;;1.93;100.00;102634.44;6097285;23;20012;-84
2022/11/26 06:08:49;;;;;;;89.22;48.38;;;;;;;1.89;100.00;102624.75;6121725;23;20397;-84
2022/11/26 06:11:14;;;;;;;83.03;46.15;;;;;;;1.90;100.00;102636.13;6122171;23;20009;-84
2022/11/26 06:13:39;;;;;;;78.90;45.72;;;;;;;1.92;100.00;102640.56;6121599;23;20001;-83
2022/11/26 06:16:05;;;;;;;82.65;43.58;;;;;;;1.95;100.00;102637.94;6122656;23;20478;-84
2022/11/26 06:18:30;;;;;;;88.07;46.13;;;;;;;1.91;100.00;102638.75;6095374;23;20033;-84
2022/11/26 06:21:00;;;;;;;81.95;43.65;;;;;;;1.96;100.00;102644.94;6120339;23;20006;-84
2022/11/26 06:23:26;;;;;;;77.68;43.10;;;;;;;1.92;100.00;102631.75;6120204;23;20013;-84
2022/11/26 06:25:51;;;;;;;77.60;43.58;;;;;;;1.95;100.00;102650.19;6094010;23;20623;-85
2022/11/26 06:28:16;;;;;;;72.30;42.67;;;;;;;1.94;100.00;102648.44;6120683;23;20002;-84
2022/11/26 06:30:44;;;;;;;75.38;42.35;;;;;;;1.92;100.00;102642.25;6120555;23;20025;-84
2022/11/26 06:33:10;;;;;;;91.13;43.20;;;;;;;1.93;100.00;102652.81;6121748;23;20056;-85
2022/11/26 06:35:36;;;;;;;80.07;43.10;;;;;;;1.94;100.00;102651.94;6121978;23;20002;-84
2022/11/26 06:38:01;;;;;;;77.10;40.78;;;;;;;1.92;100.00;102645.81;6124378;23;20061;-84
2022/11/26 06:40:26;;;;;;;76.90;43.25;;;;;;;1.91;100.00;102653.63;6122724;23;20017;-84
2022/11/26 06:42:52;;;;;;;77.43;42.83;;;;;;;1.88;100.00;102656.22;6121440;23;20014;-84
2022/11/26 06:45:18;;;;;;;76.65;42.88;;;;;;;1.88;100.00;102658.84;6120928;23;20020;-84
2022/11/26 06:47:48;;;;;;;72.53;40.55;;;;;;;1.87;100.00;102664.97;6120457;23;20006;-83
2022/11/26 06:50:18;;;;;;;70.38;42.05;;;;;;;1.84;100.00;102668.44;6123293;23;20006;-84
2022/11/26 06:52:43;;;;;;;74.65;41.13;;;;;;;1.80;100.00;102670.97;6123870;23;20010;-84
2022/11/26 06:55:09;;;;;;;73.25;42.40;;;;;;;1.81;100.00;102663.13;6122294;23;20073;-83
2022/11/26 06:57:37;;;;;;;75.20;41.55;;;;;;;1.81;100.00;102664.88;6121904;23;20434;-82
2022/11/26 07:00:04;;;;;;;75.60;41.88;;;;;;;1.80;100.00;102674.50;6123762;23;20002;-84
2022/11/26 07:02:29;;;;;;;71.90;39.55;;;;;;;1.77;100.00;102669.22;6122002;23;20065;-84
2022/11/26 07:04:55;;;;;;;73.00;40.10;;;;;;;1.78;100.00;102676.22;6123892;23;20005;-85
2022/11/26 07:07:20;;;;;;;74.70;38.78;;;;;;;1.71;100.00;102675.25;6120759;23;20079;-85
2022/11/26 07:09:45;;;;;;;70.55;38.50;;;;;;;1.68;100.00;102669.97;6119350;23;20013;-82
2022/11/26 07:12:10;;;;;;;62.80;35.00;;;;;;;1.62;100.00;102667.22;6118370;23;20013;-82
2022/11/26 07:14:36;;;;;;;61.38;33.85;;;;;;;1.70;100.00;102680.47;6118327;23;20093;-83
2022/11/26 07:17:01;;;;;;;62.35;31.20;;;;;;;1.69;100.00;102682.22;6119173;23;20009;-81
2022/11/26 07:19:26;;;;;;;59.83;32.70;;;;;;;1.69;100.00;102678.72;6118633;23;20006;-84
2022/11/26 07:21:52;;;;;;;64.93;31.63;;;;;;;1.71;100.00;102687.47;6120653;23;20005;-84
2022/11/26 07:24:17;;;;;;;63.08;32.45;;;;;;;1.80;100.00;102700.75;6119708;23;20034;-85
2022/11/26 07:26:42;;;;;;;62.45;31.63;;;;;;;1.80;100.00;102699.84;6121081;23;20060;-85
2022/11/26 07:29:08;;;;;;;65.65;32.28;;;;;;;1.77;100.00;102705.97;6120197;23;20412;-82
2022/11/26 07:31:34;;;;;;;56.63;30.65;;;;;;;1.78;100.00;102704.22;6120019;23;20016;-85
2022/11/26 07:34:00;;;;;;;60.97;32.08;;;;;;;1.72;100.00;102698.03;6120570;23;20021;-85
2022/11/26 07:36:27;;;;;;;59.80;31.60;;;;;;;1.72;100.00;102691.88;6121797;23;20044;-85
2022/11/26 07:38:55;;;;;;;63.97;32.55;;;;;;;1.61;100.00;102677.72;6123006;23;20097;-85
2022/11/26 07:41:21;;;;;;;63.38;32.05;;;;;;;1.80;100.00;102702.47;6124235;23;20013;-85
2022/11/26 07:43:46;;;;;;;60.95;31.55;;;;;;;1.77;100.00;102698.09;6124167;23;20012;-85
2022/11/26 07:46:14;;;;;;;65.38;30.45;;;;;;;1.82;100.00;102713.91;6125532;23;20516;-85
2022/11/26 07:48:39;;;;;;;57.60;28.75;;;;;;;1.84;100.00;102714.78;6123200;23;20006;-85
2022/11/26 07:51:13;;;;;;;56.20;28.30;;;;;;;1.86;100.00;102708.72;6097693;23;20069;-85
2022/11/26 07:53:38;;;;;;;61.55;28.05;;;;;;;1.93;100.00;102717.59;6123430;23;20006;-85
2022/11/26 07:56:05;;;;;;;62.92;29.08;;;;;;;1.99;100.00;102708.03;6125174;23;20009;-85
2022/11/26 07:58:30;;;;;;;59.67;29.48;;;;;;;2.03;100.00;102697.56;6122618;23;20002;-88
2022/11/26 08:00:56;;;;;;;56.45;29.38;;;;;;;2.03;100.00;102693.22;6123494;23;20085;-84
2022/11/26 08:03:21;;;;;;;60.03;30.58;;;;;;;2.14;100.00;102711.75;6120060;23;20093;-85
2022/11/26 08:05:46;;;;;;;56.65;30.70;;;;;;;2.16;100.00;102697.75;6119876;23;20014;-88
2022/11/26 08:08:12;;;;;;;62.40;30.20;;;;;;;2.19;100.00;102699.56;6095746;23;20017;-84
2022/11/26 08:10:38;;;;;;;59.95;29.08;;;;;;;2.26;100.00;102701.41;6121685;23;20452;-86
2022/11/26 08:13:03;;;;;;;62.65;29.30;;;;;;;2.39;100.00;102705.09;6121878;23;20002;-85
2022/11/26 08:15:29;;;;;;;57.70;26.75;;;;;;;2.50;100.00;102711.34;6120865;23;20012;-85
2022/11/26 08:17:55;;;;;;;57.70;27.83;;;;;;;2.61;100.00;102703.59;6120340;23;20002;-85
2022/11/26 08:20:21;;;;;;;54.45;27.73;;;;;;;2.71;100.00;102708.06;6120748;23;20012;-85
2022/11/26 08:22:46;;;;;;;60.58;28.95;;;;;;;2.83;100.00;102704.72;6120833;23;20033;-85
2022/11/26 08:25:11;;;;;;;54.53;27.45;;;;;;;2.89;100.00;102697.78;6117455;23;20787;-85
2022/11/26 08:27:36;;;;;;;55.17;25.83;;;;;;;3.04;100.00;102706.69;6116127;23;20014;-85
2022/11/26 08:30:04;;;;;;;57.70;26.55;;;;;;;3.13;100.00;102712.03;6118359;23;20036;-83
2022/11/26 08:32:29;;;;;;;57.97;25.42;;;;;;;3.22;100.00;102717.41;6117214;23;20441;-85
2022/11/26 08:34:54;;;;;;;50.42;23.55;;;;;;;3.27;100.00;102706.91;6118295;23;20006;-84
2022/11/26 08:37:19;;;;;;;54.47;24.05;;;;;;;3.36;100.00;102712.25;6091999;23;19998;-83
2022/11/26 08:39:45;;;;;;;48.75;22.67;;;;;;;3.38;100.00;102716.66;6089746;23;20351;-85
2022/11/26 08:42:10;;;;;;;50.78;23.30;;;;;;;3.50;100.00;102708.84;6117561;23;20014;-85
2022/11/26 08:44:35;;;;;;;52.17;24.25;;;;;;;3.53;100.00;102710.63;6114751;23;20084;-85
2022/11/26 08:47:00;;;;;;;48.78;23.98;;;;;;;3.60;100.00;102720.38;6119728;23;20017;-86
2022/11/26 08:49:26;;;;;;;51.60;24.73;;;;;;;3.69;100.00;102724.81;6121130;23;20080;-86
2022/11/26 08:51:55;;;;;;;58.58;24.23;;;;;;;3.66;100.00;102716.88;6126856;23;20006;-88
2022/11/26 08:54:20;;;;;;;54.88;23.05;;;;;;;3.75;100.00;102707.28;6140840;23;19997;-85
2022/11/26 08:56:46;;;;;;;52.38;23.42;;;;;;;3.86;100.00;102719.66;6135630;23;20010;-84
2022/11/26 08:59:11;;;;;;;51.20;22.40;;;;;;;3.91;100.00;102721.47;6127517;23;20029;-86
2022/11/26 09:01:36;;;;;;;46.72;21.35;;;;;;;3.92;100.00;102706.53;6119973;23;20005;-87
2022/11/26 09:04:03;;;;;;;50.85;22.10;;;;;;;4.04;100.00;102718.91;6121899;23;20305;-86
2022/11/26 09:06:31;;;;;;;42.50;19.77;;;;;;;4.07;100.00;102713.66;6093289;23;20100;-84
2022/11/26 09:09:13;;;;;;;41.20;19.45;;;;;;;4.09;100.00;102714.53;6119333;23;20006;-83
2022/11/26 09:11:47;;;;;;;42.67;18.98;;;;;;;4.17;100.00;102732.16;6118116;23;20037;-83
2022/11/26 09:14:14;;;;;;;37.10;18.52;;;;;;;4.22;100.00;102732.16;6118249;23;20073;-83
2022/11/26 09:16:39;;;;;;;38.45;17.73;;;;;;;4.28;100.00;102736.63;6119001;23;20009;-86
2022/11/26 09:19:06;;;;;;;41.90;18.67;;;;;;;4.34;100.00;102737.50;6094429;23;20006;-86
2022/11/26 09:21:33;;;;;;;46.20;19.63;;;;;;;4.31;100.00;102728.75;6119782;23;20089;-87
2022/11/26 09:23:58;;;;;;;36.67;18.08;;;;;;;4.41;100.00;102734.03;6118556;23;20014;-86
2022/11/26 09:26:24;;;;;;;32.90;17.27;;;;;;;4.47;100.00;102736.72;6120790;23;20622;-84
2022/11/26 09:28:50;;;;;;;42.42;17.88;;;;;;;4.46;100.00;102736.69;6120080;23;20002;-86
2022/11/26 09:31:16;;;;;;;35.53;16.98;;;;;;;4.55;100.00;102742.00;6117331;23;20013;-86
2022/11/26 09:33:42;;;;;;;46.53;18.48;;;;;;;4.58;100.00;102742.03;6119781;23;20013;-87
2022/11/26 09:36:10;;;;;;;35.50;17.05;;;;;;;4.62;100.00;102757.00;6118434;23;20013;-85
2022/11/26 09:38:36;;;;;;;39.95;17.60;;;;;;;4.64;100.00;102752.63;6119661;23;20395;-86
2022/11/26 09:41:26;;;;;;;44.80;16.73;;;;;;;4.76;100.00;102767.59;6118934;23;20040;-85
2022/11/26 09:44:09;;;;;;;38.70;16.35;;;;;;;4.88;100.00;102770.28;6122341;23;20009;-83
2022/11/26 09:47:03;;;;;;;41.60;16.98;;;;;;;4.98;100.00;102766.81;6120535;23;20021;-83
2022/11/26 09:49:38;;;;;;;38.47;16.48;;;;;;;5.10;100.00;102772.97;6123144;23;20274;-82
2022/11/26 09:52:06;;;;;;;37.35;15.80;;;;;;;5.16;100.00;102759.81;6096385;23;20006;-86
2022/11/26 09:54:32;;;;;;;36.42;15.98;;;;;;;5.25;100.00;102750.16;6122948;23;20016;-88
2022/11/26 09:57:08;;;;;;;37.60;17.65;;;;;;;5.37;100.00;102751.94;6129871;23;20006;-85
2022/11/26 09:59:35;;;;;;;36.88;15.63;;;;;;;5.52;100.00;102745.78;6129822;23;20009;-86
2022/11/26 10:02:00;;;;;;;30.73;14.10;;;;;;;5.57;100.00;102737.88;6122105;23;20060;-85
2022/11/26 10:04:32;;;;;;;33.65;14.40;;;;;;;5.60;100.00;102741.41;6123369;23;20005;-85
2022/11/26 10:07:28;;;;;;;31.83;14.27;;;;;;;5.65;100.00;102741.41;6125490;23;20480;-85
2022/11/26 10:10:07;;;;;;;33.08;13.10;;;;;;;5.59;100.00;102751.94;6097594;23;20319;-85
2022/11/26 10:12:53;;;;;;;28.83;12.45;;;;;;;5.60;100.00;102749.31;6122792;23;20005;-86
2022/11/26 10:15:30;;;;;;;30.15;13.00;;;;;;;5.63;100.00;102751.94;6123748;23;20014;-85
2022/11/26 10:18:17;;;;;;;30.63;13.18;;;;;;;5.67;100.00;102760.75;6122700;23;20006;-86
2022/11/26 10:21:10;;;;;;;32.83;13.02;;;;;;;5.73;100.00;102756.34;6121547;23;20482;-85
2022/11/26 10:24:08;;;;;;;34.67;13.65;;;;;;;5.77;100.00;102745.75;6121143;23;20014;-85
2022/11/26 10:26:38;;;;;;;27.90;11.63;;;;;;;5.87;100.00;102751.06;6081958;23;20360;-85
2022/11/26 10:29:21;;;;;;;30.83;12.35;;;;;;;5.90;100.00;102756.34;6122531;23;20081;-85
2022/11/26 10:31:48;;;;;;;25.92;11.98;;;;;;;5.99;100.00;102756.38;6120821;23;20010;-85
2022/11/26 10:34:38;;;;;;;30.63;13.25;;;;;;;6.09;100.00;102751.94;6121389;23;20081;-85
2022/11/26 10:37:04;;;;;;;23.38;11.20;;;;;;;6.08;100.00;102749.31;6121483;23;20048;-86
2022/11/26 10:39:29;;;;;;;24.63;11.23;;;;;;;6.13;100.00;102745.75;6121599;23;20423;-86
2022/11/26 10:41:55;;;;;;;28.05;11.98;;;;;;;6.16;100.00;102748.41;6120453;23;20013;-84
2022/11/26 10:44:33;;;;;;;29.85;12.82;;;;;;;6.17;100.00;102751.91;6123861;23;20005;-86
2022/11/26 10:47:23;;;;;;;28.80;11.82;;;;;;;6.17;100.00;102744.88;6096928;23;20010;-85
2022/11/26 10:49:51;;;;;;;23.98;11.65;;;;;;;6.19;100.00;102740.47;6097040;23;20108;-85
2022/11/26 10:52:21;;;;;;;24.48;10.80;;;;;;;6.17;100.00;102730.78;6122672;23;20408;-86
2022/11/26 10:55:08;;;;;;;26.00;11.18;;;;;;;6.26;100.00;102728.09;6122103;23;20033;-86
2022/11/26 10:57:36;;;;;;;29.90;11.45;;;;;;;6.31;100.00;102726.34;6122769;23;20002;-85
2022/11/26 11:00:01;;;;;;;27.23;11.75;;;;;;;6.36;100.00;102727.19;6122498;23;20077;-85
2022/11/26 11:02:37;;;;;;;28.33;11.88;;;;;;;6.41;100.00;102727.19;6120466;23;20033;-85
2022/11/26 11:05:06;;;;;;;34.10;12.50;;;;;;;6.43;100.00;102728.03;6121731;23;20006;-85
2022/11/26 11:07:38;;;;;;;28.48;11.32;;;;;;;6.53;100.00;102731.56;6123557;23;20432;-85
2022/11/26 11:10:10;;;;;;;24.88;10.95;;;;;;;6.62;100.00;102728.88;6122603;23;20018;-85
2022/11/26 11:12:37;;;;;;;25.48;11.13;;;;;;;6.63;100.00;102717.38;6119908;23;20036;-83
2022/11/26 11:15:23;;;;;;;27.67;10.85;;;;;;;6.74;100.00;102724.41;6121600;23;20002;-85